Nearby METAR Reports

 

KFIN - Palm Coast, Florida, USA
Distance from station: ENE 9mi, 15km
Updated: Sun, 18-Aug-2019 5:15am EDT
Clear
Clear
 Wind from calm
Wind: Calm
Temperature: 75°F , 24°C
Dew Point: 73°F , 23°C
Humidity: 94%
Barometer: 30.07 inHg , 1018.3 hPa
Clouds: Clear
Visibility: 10 miles , 16 km
2019/08/18 09:15 KFIN 180915Z AUTO 00000KT 10SM CLR 24/23 A3007 RMK AO2 LTG DSNT NE T02350226
KOMN - Ormond Beach Vor, Florida, USA
Distance from station: ESE 17mi, 27km
Updated: Sat, 17-Aug-2019 6:50pm EDT
NOT Current
Partly cloudy
Partly cloudy
 Wind from SW
Wind: SW 3 mph , 6 km/h
Temperature: 84°F , 29°C
Heat Index: 89°F , 32°C
Dew Point: 72°F , 22°C
Humidity: 66%
Barometer: 30.05 inHg , 1017.6 hPa
Clouds: Partly cloudy
Visibility: 10 miles , 16 km
Cloud details: Partly cloudy 9000 ft
2019/08/17 22:50 KOMN 172250Z 22003KT 10SM SCT090 29/22 A3005 RMK LAST
 
KDAB - Daytona Beach, Florida, USA
Distance from station: SE 24mi, 39km
Updated: Sun, 18-Aug-2019 4:53am EDT
Mostly cloudy
Mostly cloudy
 Wind from S
Wind: S 3 mph , 6 km/h
Temperature: 75°F , 24°C
Dew Point: 75°F , 24°C
Humidity: 100%
Barometer: 30.07 inHg , 1018.3 hPa
Clouds: Mostly cloudy
Visibility: 10 miles , 16 km
Cloud details: Mostly cloudy 15000 ft
2019/08/18 08:53 KDAB 180853Z 19003KT 10SM BKN150 24/24 A3007 RMK AO2 SLP181 T02440244 55004
KDED - Deland, Florida, USA
Distance from station: S 26mi, 41km
Updated: Sun, 18-Aug-2019 5:15am EDT
Clear
Clear
 Wind from calm
Wind: Calm
Temperature: 75°F , 24°C
Dew Point: 73°F , 23°C
Humidity: 94%
Barometer: 30.07 inHg , 1018.3 hPa
Clouds: Clear
Visibility: 10 miles , 16 km
2019/08/18 09:15 KDED 180915Z AUTO 00000KT 10SM CLR 24/23 A3007 RMK AO2
 
KEVB - New Smyrna Beach, Florida, USA
Distance from station: SE 36mi, 58km
Updated: Sat, 17-Aug-2019 9:47pm EDT
NOT Current
Mostly cloudy
Mostly cloudy
 Wind from S
Wind: S 9 mph , 15 km/h
Temperature: 79°F , 26°C
Dew Point: 73°F , 23°C
Humidity: 84%
Barometer: 30.09 inHg , 1019 hPa
Clouds: Mostly cloudy
Visibility: 10 miles , 16 km
Cloud details: Mostly cloudy 10000 ft
2019/08/18 01:47 KEVB 180147Z 17008KT 10SM BKN100 26/23 A3009 RMK LAST
KSGJ - St Augustine, Florida, USA
Distance from station: N 37mi, 60km
Updated: Sun, 18-Aug-2019 4:56am EDT
Overcast
Overcast
 Wind from S
Wind: S 3 mph , 6 km/h
Temperature: 75°F , 24°C
Dew Point: 73°F , 23°C
Humidity: 94%
Barometer: 30.06 inHg , 1017.9 hPa
Clouds: Overcast
Visibility: 10 miles , 16 km
Cloud details: Overcast 10000 ft
2019/08/18 08:56 KSGJ 180856Z AUTO 19003KT 10SM OVC100 24/23 A3006 RMK AO2 SLP179 T02440228 55004
 
KSFB - Sanford/Orlando, Florida, USA
Distance from station: S 47mi, 75km
Updated: Sun, 18-Aug-2019 4:53am EDT
Clear
Clear
 Wind from S
Wind: S 3 mph , 6 km/h
Temperature: 77°F , 25°C
Dew Point: 73°F , 23°C
Humidity: 89%
Barometer: 30.07 inHg , 1018.3 hPa
Clouds: Clear
Visibility: 10 miles , 16 km
2019/08/18 08:53 KSFB 180853Z AUTO 17003KT 10SM CLR 25/23 A3007 RMK AO2 SLP182 T02500233 55002
KVVG - The Villages, Florida, USA
Distance from station: SW 50mi, 80km
Updated: Wed, 14-Feb-2018 2:10pm EST
NOT Current

 Wind from calm
Wind: Calm
Temperature: 73°F , 23°C
Dew Point: 66°F , 19°C
Humidity: 78%
Barometer: 30.29 inHg , 1025.7 hPa
Visibility: 10 miles , 16 km
2018/02/14 19:10 KVVG 141910Z AUTO 00000KT 10SM 23/19 A3029 RMK A01